Lugo, Spain
Current Conditions -  °F | °C
As of 2:00 AM on Saturday 25 Oct 2014 (Local Time) from LEST Reporting Station
Clear Clear  
Wind Chill: 17°   Ceiling: Unl
Heat Index: 17°   Visibility: 6mi
Dew Point: 11°   Wind: 2mph
Humidity: 68%   Direction: NA
Pressure: 30.12"   Gusts: NA
Location:  43.01°N, 7.56°W
Report Text: LEST 250000Z VRB02KT CAVOK 17/11 Q1020 NOSIG
Loading
Personal Weather Stations






























Interactive Weather Map
Tropical Storm Tracking
New forecast layout! Learn more

10-Day Weather Forecast

Advertisements
Track Severe Weather on mobile